Historique des mesures à Cassis (13260), France
Quotidien Résumé Mai 27, 2017 Unités:  US    Métrique   Métrique/US
« Précédent (Jour)
Suivant (Jour) »
Quotidien Hebdomadaire Mensuel Annuel Période au choix
  Maximum: Minimum: Moyenne:
Température: 32 °F 65.1 °F 73.2 °F
Point de rosée: 32 °F 49.5 °F 51.1 °F
Humidité: Humidity % 33 % 44 %
Vitesse du vent: WindSpeedKMH mph 0.0 mph 1.6 mph
Rafales: WindSpeedGustKMH mph - -
Vent:- - SSE
Pression: 0 in 29.9 in -
Précipitations: 0 in    
Historical Graphs
 
 
Mesures pour : Mai 27, 2017
Heure Temperature Point de rosée Pression Vent Vitesse du vent Rafales Humidité Pluie (par heure) Conditions
32 °F 32 °F 0 in Calm     Humidity % 0 in SoftwareType W/m2
00:11 69.8 °F 52.3 °F 29.9 in NE 1.4 mph 1.4 mph 54 % 0 in open2300-1.11 W/m2
01:10 69.4 °F 52.5 °F 29.9 in Calm     55 % 0 in open2300-1.11 W/m2
02:10 66.9 °F 51.3 °F 29.9 in North 2.1 mph 2.1 mph 57 % 0 in open2300-1.11 W/m2
03:10 66.4 °F 51.3 °F 30 in Calm     58 % 0 in open2300-1.11 W/m2
04:10 65.8 °F 51.1 °F 30 in SW 1.4 mph 1.4 mph 59 % 0 in open2300-1.11 W/m2
05:10 65.1 °F 50.4 °F 30 in Calm     59 % 0 in open2300-1.11 W/m2
06:10 65.7 °F 50.5 °F 30 in Calm   1.4 mph 58 % 0 in open2300-1.11 W/m2
07:10 66.7 °F 51.1 °F 30 in NNE 2.6 mph 2.6 mph 57 % 0 in open2300-1.11 W/m2
08:10 73.4 °F 54.7 °F 30 in Calm     52 % 0 in open2300-1.11 W/m2
09:10 71.8 °F 53.8 °F 30 in Calm     53 % 0 in open2300-1.11 W/m2
10:10 75.7 °F 55.2 °F 30 in Calm     49 % 0 in open2300-1.11 W/m2
11:10 81.3 °F 57.2 °F 30 in SE 3.5 mph 5.8 mph 44 % 0 in open2300-1.11 W/m2
12:10 84 °F 54.9 °F 30 in SSE 1.8 mph 5.5 mph 37 % 0 in open2300-1.11 W/m2
13:10 84 °F 54.9 °F 30 in SSE 5.5 mph 5.5 mph 37 % 0 in open2300-1.11 W/m2
14:10 84 °F 52.5 °F 30 in South 4.3 mph 5.5 mph 34 % 0 in open2300-1.11 W/m2
15:10 82.6 °F 51.3 °F 30 in South 4.7 mph 10.5 mph 34 % 0 in open2300-1.11 W/m2
16:10 82.9 °F 50.7 °F 30 in South 1.4 mph 5.0 mph 33 % 0 in open2300-1.11 W/m2
17:10 82.6 °F 50.4 °F 30 in SW 5.5 mph 5.8 mph 33 % 0 in open2300-1.11 W/m2
18:10 81.5 °F 49.5 °F 30 in Calm   4.7 mph 33 % 0 in open2300-1.11 W/m2
19:10 79.9 °F 49.6 °F 30 in Calm   3.5 mph 35 % 0 in open2300-1.11 W/m2
20:10 78.3 °F 49.6 °F 30 in NNW 1.4 mph 1.4 mph 37 % 0 in open2300-1.11 W/m2
21:11 75.9 °F 49.8 °F 30 in Calm     40 % 0 in open2300-1.11 W/m2
22:10 72.3 °F 50.2 °F 30 in Calm   2.1 mph 46 % 0 in open2300-1.11 W/m2
23:10 70.9 °F 51.3 °F 30 in NW 3.2 mph 4.3 mph 50 % 0 in open2300-1.11 W/m2
Observations météo à CASSIS
WU-History script by Weather Underground - 1 mb